ウランバートル の空港の天気 - METARとTAF

チンギスハーン国際空港 ( ZMUB / ULN ) - モンゴル ウランバートル
飛行場実況気象(Metar)
観測時間04/27 12:30 ULAT (04/27 04:30 UTC)
風向・風速南西 3m/s
視程10km以上
天気現象
なし
気温24℃
湿度13%
気圧1010hPa
METARZMUB 270430Z 23003MPS 180V270 CAVOK 24/M06 Q1010 NOSIG RMK QFE650.9 14
過去の天気等 Google飛行場航空写真 Wunderground天気予報

過去48時間のMETAR

飛行場予報(TAF)
発表時間: 4/27 06:40 ULAT (4/26 22:40 UTC)
予報対象時間: 27日8時 ULAT ~ 28日14時 ULAT
風向・風速不定 2m/s
視程10km以上
全天の4割程度の雲 雲底高度 1,010m
27日11時 ULAT ~ 27日13時 ULAT に徐々に
風向・風速北北西 7m/s
少しの積乱雲 雲底高度 910m
全天の4割程度の雲 雲底高度 1,010m
27日18時 ULAT ~ 27日20時 ULAT に徐々に
風向・風速不定 2m/s
少しの積乱雲 雲底高度 910m
全天の8割程度の雲 雲底高度 1,010m
28日5時 ULAT ~ 28日14時 ULAT に一時的に
風向・風速不定 8m/s
天気現象弱いしゅう雨
全天の4割程度の積乱雲 雲底高度 820m
全天の4割程度の雲 雲底高度 910m
28日11時 ULAT ~ 28日13時 ULAT に徐々に
風向・風速北北西 8m/s
TAF ZMUB 262240Z 2700/2806 VRB02MPS 9999 SCT033 TX23/2707Z TN06/2622Z
BECMG 2703/2705 33007MPS FEW030CB SCT033
BECMG 2710/2712 VRB02MPS FEW030CB BKN033
TEMPO 2721/2806 VRB08MPS -SHRA SCT027CB SCT030
BECMG 2803/2805 34008MPS